Time;durP1;ratioP1;P1;durP2;ratioP2;P2;SDS_P1;SDS_P2;PMS_P1;PMS_P2;Temp;Humidity;BMP_temperature;BMP_pressure;BME280_temperature;BME280_humidity;BME280_pressure;Samples;Min_cycle;Max_cycle;Signal;HPM_P1;HPM_P2
2023/08/15 00:00:01;;;;;;;4.78;2.83;;;;;;;;;;5110190;27;42245;-63
2023/08/15 00:02:39;;;;;;;4.75;2.83;;;;;;;;;;5109703;28;41723;-62
2023/08/15 00:05:07;;;;;;;4.65;2.78;;;;;;;;;;5109960;27;41773;-62
2023/08/15 00:07:56;;;;;;;3.85;3.05;;;;;;;;;;5110103;28;42427;-63
2023/08/15 00:10:24;;;;;;;4.90;2.83;;;;;;;;;;5110561;27;40033;-63
2023/08/15 00:12:52;;;;;;;3.40;3.00;;;;;;;;;;5109486;27;42276;-63
2023/08/15 00:15:20;;;;;;;5.53;2.92;;;;;;;;;;5110129;27;41699;-63
2023/08/15 00:17:48;;;;;;;3.38;3.08;;;;;;;;;;5109696;27;41541;-63
2023/08/15 00:20:16;;;;;;;4.13;3.03;;;;;;;;;;5108618;27;41759;-63
2023/08/15 00:22:44;;;;;;;3.25;2.90;;;;;;;;;;5109540;27;40226;-62
2023/08/15 00:25:14;;;;;;;5.50;2.95;;;;;;;;;;5109542;27;42662;-62
2023/08/15 00:27:45;;;;;;;4.10;2.92;;;;;;;;;;5109370;27;42959;-62
2023/08/15 00:30:13;;;;;;;3.20;2.90;;;;;;;;;;5108640;28;39890;-62
2023/08/15 00:32:42;;;;;;;3.50;2.67;;;;;;;;;;5109831;27;43097;-63
2023/08/15 00:35:10;;;;;;;3.80;3.05;;;;;;;;;;5109691;28;41063;-62
2023/08/15 00:37:38;;;;;;;3.15;2.65;;;;;;;;;;5107917;27;40435;-62
2023/08/15 00:40:07;;;;;;;5.65;2.92;;;;;;;;;;5109549;27;42106;-63
2023/08/15 00:42:36;;;;;;;4.80;2.65;;;;;;;;;;5109091;28;41921;-63
2023/08/15 00:45:05;;;;;;;3.60;3.20;;;;;;;;;;5108705;28;39906;-62
2023/08/15 00:47:33;;;;;;;2.63;2.40;;;;;;;;;;5108134;28;42200;-63
2023/08/15 00:50:01;;;;;;;2.90;2.60;;;;;;;;;;5109799;28;40510;-63
2023/08/15 00:52:29;;;;;;;3.25;2.95;;;;;;;;;;5109096;28;42219;-63
2023/08/15 00:54:57;;;;;;;5.20;3.10;;;;;;;;;;5109353;28;42703;-62
2023/08/15 00:57:25;;;;;;;3.65;2.70;;;;;;;;;;5107382;28;41588;-63
2023/08/15 00:59:54;;;;;;;6.55;2.85;;;;;;;;;;5109063;28;41915;-62
2023/08/15 01:02:22;;;;;;;4.07;3.45;;;;;;;;;;5106737;28;39181;-63
2023/08/15 01:04:50;;;;;;;3.80;3.17;;;;;;;;;;5109271;28;42123;-63
2023/08/15 01:07:18;;;;;;;3.75;3.20;;;;;;;;;;5109444;27;42177;-62
2023/08/15 01:09:47;;;;;;;4.53;2.80;;;;;;;;;;5106758;28;39155;-62
2023/08/15 01:12:18;;;;;;;5.25;2.90;;;;;;;;;;5125152;27;40084;-63
2023/08/15 01:14:48;;;;;;;3.75;3.20;;;;;;;;;;5108580;28;41995;-63
2023/08/15 01:17:19;;;;;;;3.35;3.00;;;;;;;;;;5108960;28;40307;-63
2023/08/15 01:19:48;;;;;;;3.47;3.15;;;;;;;;;;5108708;28;41920;-63
2023/08/15 01:22:16;;;;;;;3.25;2.60;;;;;;;;;;5123918;27;39675;-63
2023/08/15 01:24:47;;;;;;;3.72;3.00;;;;;;;;;;5108160;28;41929;-63
2023/08/15 01:27:15;;;;;;;5.05;3.35;;;;;;;;;;5107922;28;42054;-62
2023/08/15 01:29:43;;;;;;;3.83;2.83;;;;;;;;;;5107054;28;42268;-63
2023/08/15 01:32:13;;;;;;;3.58;3.13;;;;;;;;;;5108838;27;42176;-62
2023/08/15 01:34:43;;;;;;;3.10;2.63;;;;;;;;;;5108412;27;41794;-62
2023/08/15 01:37:13;;;;;;;3.38;3.08;;;;;;;;;;5088076;28;40600;-62
2023/08/15 01:39:41;;;;;;;4.03;3.00;;;;;;;;;;5094068;28;42642;-62
2023/08/15 01:42:10;;;;;;;4.32;3.55;;;;;;;;;;5108990;28;40132;-62
2023/08/15 01:44:38;;;;;;;6.00;3.15;;;;;;;;;;5107527;27;42590;-62
2023/08/15 01:47:09;;;;;;;5.93;3.42;;;;;;;;;;5108857;28;42883;-63
2023/08/15 01:49:39;;;;;;;3.92;3.17;;;;;;;;;;5107866;28;41432;-63
2023/08/15 01:52:07;;;;;;;5.25;3.70;;;;;;;;;;5107835;28;41947;-62
2023/08/15 01:54:35;;;;;;;3.40;3.10;;;;;;;;;;5108046;27;42902;-62
2023/08/15 01:57:03;;;;;;;5.07;3.45;;;;;;;;;;5107984;27;39607;-62
2023/08/15 01:59:32;;;;;;;4.85;3.50;;;;;;;;;;5117558;27;40254;-63
2023/08/15 02:02:00;;;;;;;3.40;2.78;;;;;;;;;;5107842;27;41972;-63
2023/08/15 02:04:29;;;;;;;4.43;3.67;;;;;;;;;;5104733;28;41714;-62
2023/08/15 02:06:57;;;;;;;3.58;3.20;;;;;;;;;;5108805;27;42672;-63
2023/08/15 02:09:25;;;;;;;3.60;3.00;;;;;;;;;;5105941;28;39215;-63
2023/08/15 02:11:53;;;;;;;3.40;3.10;;;;;;;;;;5106427;28;42627;-62
2023/08/15 02:14:21;;;;;;;3.40;3.08;;;;;;;;;;5106797;28;41439;-63
2023/08/15 02:16:50;;;;;;;3.97;3.25;;;;;;;;;;5107858;28;40395;-63
2023/08/15 02:19:19;;;;;;;3.60;3.30;;;;;;;;;;5105743;28;40271;-63
2023/08/15 02:21:46;;;;;;;3.67;3.25;;;;;;;;;;5107907;28;42122;-63
2023/08/15 02:24:14;;;;;;;3.80;3.40;;;;;;;;;;5108346;28;42218;-63
2023/08/15 02:26:42;;;;;;;4.82;3.50;;;;;;;;;;5107299;27;42801;-63
2023/08/15 02:29:13;;;;;;;3.45;3.10;;;;;;;;;;5108098;28;40400;-63
2023/08/15 02:31:43;;;;;;;5.35;3.47;;;;;;;;;;5107347;28;41529;-63
2023/08/15 02:34:12;;;;;;;4.88;3.80;;;;;;;;;;5107495;28;44350;-64
2023/08/15 02:36:40;;;;;;;4.38;3.78;;;;;;;;;;5107440;28;41384;-63
2023/08/15 02:39:08;;;;;;;5.38;3.70;;;;;;;;;;5108062;28;41698;-63
2023/08/15 02:41:36;;;;;;;6.32;3.55;;;;;;;;;;5105009;28;41925;-63
2023/08/15 02:44:04;;;;;;;3.75;3.30;;;;;;;;;;5108310;28;41258;-63
2023/08/15 02:46:32;;;;;;;3.38;3.08;;;;;;;;;;5105130;28;40685;-63
2023/08/15 02:49:00;;;;;;;4.88;3.40;;;;;;;;;;5108039;27;40929;-63
2023/08/15 02:51:32;;;;;;;4.40;3.53;;;;;;;;;;5107396;28;42800;-63
2023/08/15 02:54:00;;;;;;;4.70;3.42;;;;;;;;;;5106395;28;42255;-63
2023/08/15 02:56:28;;;;;;;4.95;4.07;;;;;;;;;;5106029;27;39184;-63
2023/08/15 02:58:56;;;;;;;3.97;3.53;;;;;;;;;;5106721;27;40380;-63
2023/08/15 03:01:24;;;;;;;4.25;3.38;;;;;;;;;;5094208;27;42094;-63
2023/08/15 03:03:52;;;;;;;5.00;3.30;;;;;;;;;;5108073;28;40456;-64
2023/08/15 03:06:20;;;;;;;4.25;3.85;;;;;;;;;;5107351;28;42458;-63
2023/08/15 03:08:50;;;;;;;4.13;3.60;;;;;;;;;;5122545;27;39931;-63
2023/08/15 03:11:18;;;;;;;5.32;4.47;;;;;;;;;;5107248;28;41638;-64
2023/08/15 03:13:46;;;;;;;4.68;4.18;;;;;;;;;;5122919;27;40444;-64
2023/08/15 03:16:13;;;;;;;6.57;3.97;;;;;;;;;;5107016;28;39896;-63
2023/08/15 03:18:42;;;;;;;6.45;4.13;;;;;;;;;;5122686;27;40327;-63
2023/08/15 03:21:11;;;;;;;11.82;6.25;;;;;;;;;;5107234;27;41804;-63
2023/08/15 03:23:39;;;;;;;5.05;3.50;;;;;;;;;;5122876;27;39099;-63
2023/08/15 03:26:09;;;;;;;3.78;3.22;;;;;;;;;;5109761;28;40069;-63
2023/08/15 03:28:38;;;;;;;5.97;3.90;;;;;;;;;;5125292;27;40901;-64
2023/08/15 03:31:06;;;;;;;5.75;4.40;;;;;;;;;;5108690;28;39800;-64
2023/08/15 03:33:38;;;;;;;9.15;4.55;;;;;;;;;;5110076;27;42215;-63
2023/08/15 03:36:09;;;;;;;7.47;5.53;;;;;;;;;;5110521;27;40463;-63
2023/08/15 03:38:38;;;;;;;6.68;4.85;;;;;;;;;;5108878;28;41209;-63
2023/08/15 03:41:06;;;;;;;5.05;3.95;;;;;;;;;;5126167;27;40603;-63
2023/08/15 03:43:35;;;;;;;4.07;3.50;;;;;;;;;;5107724;28;38931;-63
2023/08/15 03:46:03;;;;;;;6.10;4.20;;;;;;;;;;5110959;27;42031;-63
2023/08/15 03:48:35;;;;;;;5.20;3.78;;;;;;;;;;5125539;27;40898;-63
2023/08/15 03:51:03;;;;;;;7.55;5.53;;;;;;;;;;5089590;28;40336;-63
2023/08/15 03:53:31;;;;;;;4.45;3.72;;;;;;;;;;5089757;28;42128;-63
2023/08/15 03:56:00;;;;;;;5.95;4.18;;;;;;;;;;5109110;27;40803;-63
2023/08/15 03:58:28;;;;;;;13.02;7.47;;;;;;;;;;5107942;27;41124;-63
2023/08/15 04:00:58;;;;;;;4.93;4.00;;;;;;;;;;5108557;28;41596;-63
2023/08/15 04:03:26;;;;;;;6.70;4.22;;;;;;;;;;5107594;28;40165;-63
2023/08/15 04:05:54;;;;;;;9.00;4.65;;;;;;;;;;5109935;28;41814;-68
2023/08/15 04:08:22;;;;;;;12.85;6.00;;;;;;;;;;5108327;28;41004;-68
2023/08/15 04:10:50;;;;;;;6.68;5.80;;;;;;;;;;5109722;28;40908;-63
2023/08/15 04:13:18;;;;;;;8.05;5.63;;;;;;;;;;5110377;27;41548;-63
2023/08/15 04:15:46;;;;;;;7.38;5.50;;;;;;;;;;5108013;28;38987;-63
2023/08/15 04:18:16;;;;;;;8.40;5.32;;;;;;;;;;5124617;27;40263;-64
2023/08/15 04:20:44;;;;;;;9.43;5.93;;;;;;;;;;5108470;28;42224;-64
2023/08/15 04:23:12;;;;;;;17.23;5.78;;;;;;;;;;5108441;28;40082;-65
2023/08/15 04:25:40;;;;;;;7.78;6.00;;;;;;;;;;5106551;28;40893;-65
2023/08/15 04:28:08;;;;;;;15.85;5.70;;;;;;;;;;5108202;27;41401;-65
2023/08/15 04:30:37;;;;;;;15.38;5.72;;;;;;;;;;5107693;28;40448;-66
2023/08/15 04:33:05;;;;;;;18.85;5.80;;;;;;;;;;5109497;28;41979;-65
2023/08/15 04:35:35;;;;;;;12.13;5.50;;;;;;;;;;5106676;27;39453;-65
2023/08/15 04:38:03;;;;;;;11.75;5.72;;;;;;;;;;5109793;28;41653;-65
2023/08/15 04:40:32;;;;;;;15.18;5.63;;;;;;;;;;5106991;28;42090;-65
2023/08/15 04:43:00;;;;;;;11.63;5.03;;;;;;;;;;5107980;28;39942;-66
2023/08/15 04:45:28;;;;;;;12.13;4.72;;;;;;;;;;5107294;28;40433;-65
2023/08/15 04:47:56;;;;;;;10.80;4.35;;;;;;;;;;5108910;27;42963;-65
2023/08/15 04:50:24;;;;;;;14.77;4.80;;;;;;;;;;5107800;28;40553;-65
2023/08/15 04:52:54;;;;;;;16.27;4.60;;;;;;;;;;5108280;28;41197;-65
2023/08/15 04:55:24;;;;;;;22.95;4.78;;;;;;;;;;5107875;28;42379;-65
2023/08/15 04:57:53;;;;;;;13.80;4.88;;;;;;;;;;5107841;28;41288;-65
2023/08/15 05:00:21;;;;;;;10.18;4.63;;;;;;;;;;5108420;28;42404;-65
2023/08/15 05:02:49;;;;;;;15.13;4.53;;;;;;;;;;5107273;28;38736;-65
2023/08/15 05:05:17;;;;;;;10.43;4.40;;;;;;;;;;5109005;28;42525;-65
2023/08/15 05:07:45;;;;;;;16.05;5.15;;;;;;;;;;5106568;28;41798;-65
2023/08/15 05:10:15;;;;;;;11.95;4.10;;;;;;;;;;5113396;27;39892;-65
2023/08/15 05:12:44;;;;;;;13.98;4.35;;;;;;;;;;5087345;28;41205;-65
2023/08/15 05:15:12;;;;;;;13.27;4.68;;;;;;;;;;5099078;28;43122;-65
2023/08/15 05:17:40;;;;;;;18.45;4.60;;;;;;;;;;5107245;28;39054;-66
2023/08/15 05:20:10;;;;;;;19.55;4.40;;;;;;;;;;5106217;28;40553;-66
2023/08/15 05:22:38;;;;;;;10.80;3.88;;;;;;;;;;5109205;27;40431;-66
2023/08/15 05:25:06;;;;;;;13.50;3.80;;;;;;;;;;5119036;27;40893;-65
2023/08/15 05:27:41;;;;;;;12.95;3.78;;;;;;;;;;5107274;27;42009;-66
2023/08/15 05:30:10;;;;;;;8.85;3.92;;;;;;;;;;5108043;28;40641;-66
2023/08/15 05:32:38;;;;;;;14.10;3.65;;;;;;;;;;5106671;28;41077;-65
2023/08/15 05:35:06;;;;;;;8.18;3.47;;;;;;;;;;5108559;28;43018;-65
2023/08/15 05:37:34;;;;;;;7.35;3.53;;;;;;;;;;5106315;28;40480;-66
2023/08/15 05:40:04;;;;;;;6.38;3.03;;;;;;;;;;5107549;28;39829;-65
2023/08/15 05:42:32;;;;;;;10.75;3.05;;;;;;;;;;5085959;28;38094;-65
2023/08/15 05:45:01;;;;;;;7.22;3.53;;;;;;;;;;5104143;27;41967;-67
2023/08/15 05:47:29;;;;;;;9.48;3.72;;;;;;;;;;5107451;27;42613;-67
2023/08/15 05:49:57;;;;;;;9.10;3.83;;;;;;;;;;5107647;27;40747;-67
2023/08/15 05:52:26;;;;;;;8.50;3.85;;;;;;;;;;5108512;27;41500;-66
2023/08/15 05:54:54;;;;;;;16.30;4.32;;;;;;;;;;5108007;27;43148;-67
2023/08/15 05:57:22;;;;;;;11.27;3.70;;;;;;;;;;5107859;27;41277;-67
2023/08/15 05:59:50;;;;;;;7.60;3.80;;;;;;;;;;5107808;27;42405;-68
2023/08/15 06:02:19;;;;;;;11.93;4.50;;;;;;;;;;5112320;27;41672;-67
2023/08/15 06:04:47;;;;;;;9.07;3.78;;;;;;;;;;5113912;27;41663;-66
2023/08/15 06:07:15;;;;;;;9.57;3.78;;;;;;;;;;5108721;27;41994;-67
2023/08/15 06:09:43;;;;;;;6.40;3.30;;;;;;;;;;5107517;27;40296;-67
2023/08/15 06:12:11;;;;;;;9.07;3.60;;;;;;;;;;5107747;27;41826;-67
2023/08/15 06:14:40;;;;;;;10.68;4.00;;;;;;;;;;5107577;27;41965;-66
2023/08/15 06:17:08;;;;;;;9.50;4.40;;;;;;;;;;5108379;27;40494;-65
2023/08/15 06:19:37;;;;;;;6.65;4.15;;;;;;;;;;5107080;27;41674;-66
2023/08/15 06:22:05;;;;;;;7.28;3.70;;;;;;;;;;5108130;27;42716;-67
2023/08/15 06:24:34;;;;;;;13.43;4.70;;;;;;;;;;5106931;27;40261;-67
2023/08/15 06:27:03;;;;;;;11.05;4.93;;;;;;;;;;5107938;27;43067;-67
2023/08/15 06:29:30;;;;;;;7.32;4.70;;;;;;;;;;5106502;27;40716;-67
2023/08/15 06:31:58;;;;;;;10.90;5.20;;;;;;;;;;5107595;27;41563;-66
2023/08/15 06:34:27;;;;;;;8.45;5.03;;;;;;;;;;5107220;27;42799;-66
2023/08/15 06:36:56;;;;;;;12.68;5.10;;;;;;;;;;5107718;27;40493;-66
2023/08/15 06:39:24;;;;;;;9.80;4.72;;;;;;;;;;5106545;27;41157;-66
2023/08/15 06:41:52;;;;;;;16.05;5.85;;;;;;;;;;5108508;27;42627;-66
2023/08/15 06:44:21;;;;;;;15.68;6.50;;;;;;;;;;5117245;27;41398;-67
2023/08/15 06:46:49;;;;;;;14.50;5.90;;;;;;;;;;5106571;27;42138;-65
2023/08/15 06:49:17;;;;;;;11.80;4.55;;;;;;;;;;5107769;27;40518;-64
2023/08/15 06:51:45;;;;;;;11.85;4.85;;;;;;;;;;5107765;27;41663;-67
2023/08/15 06:54:14;;;;;;;11.07;5.13;;;;;;;;;;5106620;27;42151;-66
2023/08/15 06:56:42;;;;;;;13.90;4.95;;;;;;;;;;5107044;27;40315;-66
2023/08/15 06:59:10;;;;;;;15.10;3.85;;;;;;;;;;5110333;27;42106;-65
2023/08/15 07:01:39;;;;;;;11.85;3.92;;;;;;;;;;5109639;27;41862;-66
2023/08/15 07:04:07;;;;;;;8.23;4.30;;;;;;;;;;5110259;27;40988;-66
2023/08/15 07:06:35;;;;;;;14.05;4.50;;;;;;;;;;5109532;27;41604;-65
2023/08/15 07:09:06;;;;;;;11.98;3.28;;;;;;;;;;5110838;27;39957;-64
2023/08/15 07:11:35;;;;;;;9.73;3.75;;;;;;;;;;5110634;27;42653;-65
2023/08/15 07:14:04;;;;;;;8.90;4.30;;;;;;;;;;5109778;27;42007;-65
2023/08/15 07:16:32;;;;;;;9.60;3.97;;;;;;;;;;5110718;27;41372;-65
2023/08/15 07:19:00;;;;;;;9.73;3.70;;;;;;;;;;5111369;27;42661;-65
2023/08/15 07:21:28;;;;;;;8.85;3.97;;;;;;;;;;5109244;27;42058;-64
2023/08/15 07:23:56;;;;;;;8.57;3.90;;;;;;;;;;5111391;27;40419;-64
2023/08/15 07:26:24;;;;;;;8.25;3.75;;;;;;;;;;5115235;27;42205;-64
2023/08/15 07:28:54;;;;;;;9.82;4.65;;;;;;;;;;5116749;27;42850;-65
2023/08/15 07:31:22;;;;;;;9.50;3.70;;;;;;;;;;5110835;27;41519;-66
2023/08/15 07:33:50;;;;;;;8.00;4.40;;;;;;;;;;5121798;27;42186;-66
2023/08/15 07:36:18;;;;;;;12.85;3.88;;;;;;;;;;5109317;27;40894;-70
2023/08/15 07:38:45;;;;;;;8.73;4.05;;;;;;;;;;5110569;27;41696;-72
2023/08/15 07:41:13;;;;;;;12.18;4.25;;;;;;;;;;5110782;27;42076;-70
2023/08/15 07:43:41;;;;;;;15.93;4.97;;;;;;;;;;5112856;27;39551;-70
2023/08/15 07:46:11;;;;;;;19.20;4.85;;;;;;;;;;5121924;27;42593;-70
2023/08/15 07:48:39;;;;;;;14.43;4.35;;;;;;;;;;5127633;27;41807;-70
2023/08/15 07:51:08;;;;;;;9.18;3.78;;;;;;;;;;5121450;27;40957;-70
2023/08/15 07:53:36;;;;;;;14.60;4.70;;;;;;;;;;5122066;27;42258;-71
2023/08/15 07:56:04;;;;;;;11.00;4.10;;;;;;;;;;5120705;27;41438;-71
2023/08/15 07:58:33;;;;;;;13.02;4.57;;;;;;;;;;5123003;27;42654;-71
2023/08/15 08:01:01;;;;;;;11.15;3.72;;;;;;;;;;5121456;27;42741;-71
2023/08/15 08:03:30;;;;;;;13.25;4.35;;;;;;;;;;5108872;27;40442;-71
2023/08/15 08:05:58;;;;;;;10.85;4.70;;;;;;;;;;5104859;27;41455;-70
2023/08/15 08:08:26;;;;;;;10.77;4.25;;;;;;;;;;5102106;27;42108;-71
2023/08/15 08:10:54;;;;;;;10.30;3.40;;;;;;;;;;5102642;28;40386;-68
2023/08/15 08:13:22;;;;;;;18.90;4.10;;;;;;;;;;5108523;27;41607;-67
2023/08/15 08:15:50;;;;;;;9.35;3.78;;;;;;;;;;5105416;28;40140;-68
2023/08/15 08:18:18;;;;;;;15.70;4.20;;;;;;;;;;5106692;27;41379;-65
2023/08/15 08:20:48;;;;;;;24.15;4.07;;;;;;;;;;5097884;28;41461;-65
2023/08/15 08:23:17;;;;;;;21.38;4.22;;;;;;;;;;5115224;27;40763;-66
2023/08/15 08:25:45;;;;;;;15.20;3.70;;;;;;;;;;5106148;27;39892;-65
2023/08/15 08:28:13;;;;;;;12.13;3.78;;;;;;;;;;5108768;27;43097;-65
2023/08/15 08:30:43;;;;;;;9.93;2.78;;;;;;;;;;5096727;28;41888;-65
2023/08/15 08:33:13;;;;;;;11.30;3.33;;;;;;;;;;5108740;27;42226;-67
2023/08/15 08:35:41;;;;;;;7.57;3.10;;;;;;;;;;5104942;27;35110;-65
2023/08/15 08:38:10;;;;;;;5.53;2.72;;;;;;;;;;5107271;28;41218;-63
2023/08/15 08:40:39;;;;;;;9.82;3.20;;;;;;;;;;5108857;27;43289;-65
2023/08/15 08:43:07;;;;;;;6.53;3.33;;;;;;;;;;5109442;27;39781;-66
2023/08/15 08:45:35;;;;;;;12.18;4.05;;;;;;;;;;5108762;27;40983;-66
2023/08/15 08:48:03;;;;;;;9.55;3.80;;;;;;;;;;5109603;27;42576;-66
2023/08/15 08:50:31;;;;;;;10.68;3.30;;;;;;;;;;5109091;27;40280;-66
2023/08/15 08:52:59;;;;;;;6.63;3.00;;;;;;;;;;5108390;27;42813;-66
2023/08/15 08:55:28;;;;;;;6.45;3.33;;;;;;;;;;5109916;27;42205;-66
2023/08/15 08:57:58;;;;;;;9.20;3.42;;;;;;;;;;5109060;27;41203;-66
2023/08/15 09:00:26;;;;;;;8.48;3.38;;;;;;;;;;5108658;27;41928;-66
2023/08/15 09:02:56;;;;;;;8.90;3.28;;;;;;;;;;5108694;27;40368;-66
2023/08/15 09:05:24;;;;;;;9.45;3.45;;;;;;;;;;5109412;27;41419;-66
2023/08/15 09:07:52;;;;;;;8.27;3.25;;;;;;;;;;5108274;27;41887;-66
2023/08/15 09:10:21;;;;;;;8.35;3.38;;;;;;;;;;5108539;27;40286;-66
2023/08/15 09:12:51;;;;;;;6.70;2.78;;;;;;;;;;5109081;27;42713;-66
2023/08/15 09:15:19;;;;;;;8.68;3.65;;;;;;;;;;5108390;27;42195;-66
2023/08/15 09:17:47;;;;;;;9.93;4.05;;;;;;;;;;5108499;27;40275;-66
2023/08/15 09:20:15;;;;;;;9.38;2.85;;;;;;;;;;5105753;27;42120;-67
2023/08/15 09:22:44;;;;;;;7.57;2.88;;;;;;;;;;5108995;27;40297;-66
2023/08/15 09:25:14;;;;;;;9.00;4.40;;;;;;;;;;5109864;27;41828;-66
2023/08/15 09:27:42;;;;;;;7.82;3.22;;;;;;;;;;5107989;27;41872;-66
2023/08/15 09:30:13;;;;;;;8.32;3.08;;;;;;;;;;5108250;27;40888;-66
2023/08/15 09:32:41;;;;;;;10.15;4.05;;;;;;;;;;5107983;27;41061;-66
2023/08/15 09:35:09;;;;;;;8.70;3.35;;;;;;;;;;5108082;27;41699;-67
2023/08/15 09:37:40;;;;;;;8.27;3.88;;;;;;;;;;5108076;27;40291;-68
2023/08/15 09:40:10;;;;;;;10.52;3.53;;;;;;;;;;5089640;27;41242;-69
2023/08/15 09:42:38;;;;;;;6.10;3.30;;;;;;;;;;5089539;28;40613;-67
2023/08/15 09:45:07;;;;;;;9.80;3.33;;;;;;;;;;5109406;27;42178;-69
2023/08/15 09:47:36;;;;;;;11.05;3.35;;;;;;;;;;5107939;27;42187;-69
2023/08/15 09:50:05;;;;;;;6.80;3.53;;;;;;;;;;5107982;27;40188;-67
2023/08/15 09:52:33;;;;;;;8.10;3.22;;;;;;;;;;5108376;27;42231;-68
2023/08/15 09:55:01;;;;;;;6.88;3.95;;;;;;;;;;5108815;27;43085;-70
2023/08/15 09:57:29;;;;;;;8.13;2.97;;;;;;;;;;5107280;27;41422;-70
2023/08/15 09:59:57;;;;;;;9.27;3.08;;;;;;;;;;5109002;27;42178;-68
2023/08/15 10:02:25;;;;;;;8.15;4.20;;;;;;;;;;5094364;27;41389;-66
2023/08/15 10:04:57;;;;;;;10.02;3.75;;;;;;;;;;5101105;28;41255;-66
2023/08/15 10:07:25;;;;;;;15.45;4.88;;;;;;;;;;5096131;27;42999;-67
2023/08/15 10:09:53;;;;;;;12.20;4.47;;;;;;;;;;5093319;28;40647;-68
2023/08/15 10:12:21;;;;;;;8.60;4.00;;;;;;;;;;5107613;27;41578;-67
2023/08/15 10:14:50;;;;;;;9.20;4.20;;;;;;;;;;5107325;27;42035;-66
2023/08/15 10:17:18;;;;;;;11.77;4.22;;;;;;;;;;5107934;27;39937;-68
2023/08/15 10:19:46;;;;;;;9.40;4.00;;;;;;;;;;5106532;27;42499;-66
2023/08/15 10:22:19;;;;;;;7.75;3.28;;;;;;;;;;5105759;27;42089;-68
2023/08/15 10:24:47;;;;;;;8.57;3.60;;;;;;;;;;5106668;27;39904;-65
2023/08/15 10:27:16;;;;;;;8.88;4.03;;;;;;;;;;5108011;27;42148;-65
2023/08/15 10:29:52;;;;;;;7.88;3.53;;;;;;;;;;5106871;27;40926;-63
2023/08/15 10:32:23;;;;;;;6.88;3.95;;;;;;;;;;5105087;27;40518;-65
2023/08/15 10:34:52;;;;;;;9.85;3.50;;;;;;;;;;5107717;27;41856;-64
2023/08/15 10:37:28;;;;;;;8.90;3.33;;;;;;;;;;5107742;27;40561;-65
2023/08/15 10:40:10;;;;;;;7.57;3.28;;;;;;;;;;5106452;27;41567;-64
2023/08/15 10:42:56;;;;;;;6.30;3.20;;;;;;;;;;5106899;27;42389;-64
2023/08/15 10:45:25;;;;;;;9.27;3.58;;;;;;;;;;5106265;27;40455;-65
2023/08/15 10:47:54;;;;;;;6.13;3.17;;;;;;;;;;5107413;27;42144;-64
2023/08/15 10:50:22;;;;;;;6.35;3.50;;;;;;;;;;5106774;27;41011;-63
2023/08/15 10:52:58;;;;;;;7.30;3.13;;;;;;;;;;5106840;27;42367;-63
2023/08/15 10:55:27;;;;;;;7.90;3.15;;;;;;;;;;5106203;27;41696;-65
2023/08/15 10:57:55;;;;;;;5.18;3.05;;;;;;;;;;5107065;27;40002;-64
2023/08/15 11:00:23;;;;;;;6.00;3.00;;;;;;;;;;5105947;27;42492;-64
2023/08/15 11:02:51;;;;;;;7.43;2.60;;;;;;;;;;5106973;27;41486;-64
2023/08/15 11:05:41;;;;;;;8.82;3.20;;;;;;;;;;5107116;27;41404;-65
2023/08/15 11:08:11;;;;;;;4.90;2.50;;;;;;;;;;5107275;27;42137;-63
2023/08/15 11:10:46;;;;;;;9.38;3.60;;;;;;;;;;5106388;27;39706;-64
2023/08/15 11:13:14;;;;;;;9.90;3.83;;;;;;;;;;5106937;27;42575;-65
2023/08/15 11:15:42;;;;;;;6.78;3.05;;;;;;;;;;5106850;27;42147;-66
2023/08/15 11:18:10;;;;;;;6.30;3.50;;;;;;;;;;5107502;27;40167;-64
2023/08/15 11:20:38;;;;;;;10.60;3.40;;;;;;;;;;5105181;27;42510;-63
2023/08/15 11:23:06;;;;;;;8.00;3.30;;;;;;;;;;5106755;27;41931;-63
2023/08/15 11:25:35;;;;;;;11.35;3.33;;;;;;;;;;5106006;27;42486;-64
2023/08/15 11:28:03;;;;;;;7.63;2.92;;;;;;;;;;5105863;27;42366;-62
2023/08/15 11:30:31;;;;;;;10.45;3.92;;;;;;;;;;5106215;27;42770;-63
2023/08/15 11:32:59;;;;;;;6.88;3.35;;;;;;;;;;5106540;27;41981;-63
2023/08/15 11:35:27;;;;;;;8.90;3.60;;;;;;;;;;5105267;27;42844;-63
2023/08/15 11:37:55;;;;;;;7.05;3.67;;;;;;;;;;5105839;27;40881;-65
2023/08/15 11:40:23;;;;;;;11.75;3.67;;;;;;;;;;5109936;27;41271;-66
2023/08/15 11:42:53;;;;;;;8.85;4.20;;;;;;;;;;5110073;27;42736;-66
2023/08/15 11:45:21;;;;;;;7.55;3.95;;;;;;;;;;5113297;27;40405;-68
2023/08/15 11:47:55;;;;;;;7.95;4.25;;;;;;;;;;5115644;27;41472;-66
2023/08/15 11:50:24;;;;;;;10.98;3.90;;;;;;;;;;5116863;27;41543;-66
2023/08/15 11:53:09;;;;;;;11.63;4.20;;;;;;;;;;5125230;27;40863;-68
2023/08/15 11:55:37;;;;;;;14.95;4.50;;;;;;;;;;5108387;27;42332;-66
2023/08/15 11:58:20;;;;;;;8.18;3.70;;;;;;;;;;5109517;27;41295;-67
2023/08/15 12:00:48;;;;;;;8.55;4.00;;;;;;;;;;5110167;27;42081;-67
2023/08/15 12:03:16;;;;;;;11.98;4.40;;;;;;;;;;5108997;27;42706;-70
2023/08/15 12:05:44;;;;;;;8.02;4.43;;;;;;;;;;5109142;27;39990;-66
2023/08/15 12:08:13;;;;;;;13.68;4.78;;;;;;;;;;5108558;27;41694;-67
2023/08/15 12:10:42;;;;;;;11.30;4.80;;;;;;;;;;5108459;27;42183;-66
2023/08/15 12:13:10;;;;;;;17.70;5.20;;;;;;;;;;5110314;27;41125;-67
2023/08/15 12:15:39;;;;;;;12.57;4.82;;;;;;;;;;5103157;27;41858;-67
2023/08/15 12:18:07;;;;;;;13.00;4.78;;;;;;;;;;5101981;28;41456;-67
2023/08/15 12:20:35;;;;;;;9.98;5.30;;;;;;;;;;5108583;27;42635;-66
2023/08/15 12:23:03;;;;;;;12.07;4.60;;;;;;;;;;5105919;27;43060;-65
2023/08/15 12:25:34;;;;;;;10.23;5.10;;;;;;;;;;5108471;27;40349;-66
2023/08/15 12:28:02;;;;;;;11.75;5.03;;;;;;;;;;5106464;27;41790;-67
2023/08/15 12:30:30;;;;;;;16.67;5.43;;;;;;;;;;5090889;28;42068;-67
2023/08/15 12:33:00;;;;;;;11.50;5.10;;;;;;;;;;5109744;27;41447;-67
2023/08/15 12:35:28;;;;;;;11.25;5.38;;;;;;;;;;5100373;27;41899;-64
2023/08/15 12:37:56;;;;;;;16.10;5.68;;;;;;;;;;5108691;27;43354;-64
2023/08/15 12:40:24;;;;;;;12.18;5.30;;;;;;;;;;5101154;27;41718;-63
2023/08/15 12:42:58;;;;;;;14.68;4.88;;;;;;;;;;5109064;27;42896;-63
2023/08/15 12:45:27;;;;;;;10.35;5.28;;;;;;;;;;5104568;27;40422;-63
2023/08/15 12:47:55;;;;;;;9.63;5.05;;;;;;;;;;5087676;28;41589;-62
2023/08/15 12:50:24;;;;;;;10.88;4.72;;;;;;;;;;5087592;28;41918;-63
2023/08/15 12:52:52;;;;;;;13.95;5.18;;;;;;;;;;5088109;28;40244;-63
2023/08/15 12:55:20;;;;;;;10.30;5.22;;;;;;;;;;5087777;28;42556;-63
2023/08/15 12:57:48;;;;;;;14.90;5.65;;;;;;;;;;5096966;27;43054;-64
2023/08/15 13:00:17;;;;;;;12.65;5.93;;;;;;;;;;5114742;27;42262;-63
2023/08/15 13:02:45;;;;;;;11.32;5.57;;;;;;;;;;5118607;27;43289;-63
2023/08/15 13:05:13;;;;;;;10.82;5.32;;;;;;;;;;5118793;27;41840;-62
2023/08/15 13:07:42;;;;;;;9.80;5.63;;;;;;;;;;5108288;27;42866;-64
2023/08/15 13:10:10;;;;;;;9.00;4.65;;;;;;;;;;5108411;27;41990;-62
2023/08/15 13:12:39;;;;;;;8.10;4.85;;;;;;;;;;5086901;28;38939;-62
2023/08/15 13:15:07;;;;;;;10.65;4.78;;;;;;;;;;5095211;28;41806;-62
2023/08/15 13:17:35;;;;;;;8.45;4.82;;;;;;;;;;5106943;27;42152;-63
2023/08/15 13:20:04;;;;;;;12.85;4.88;;;;;;;;;;5108355;27;40897;-63
2023/08/15 13:22:32;;;;;;;9.43;4.85;;;;;;;;;;5107716;27;41661;-63
2023/08/15 13:25:01;;;;;;;9.57;5.20;;;;;;;;;;5107305;28;40925;-62
2023/08/15 13:27:29;;;;;;;10.77;4.95;;;;;;;;;;5105097;28;42842;-63
2023/08/15 13:29:57;;;;;;;14.32;5.05;;;;;;;;;;5106880;27;42606;-63
2023/08/15 13:32:25;;;;;;;11.52;5.20;;;;;;;;;;5107221;27;40575;-64
2023/08/15 13:34:53;;;;;;;8.52;5.15;;;;;;;;;;5108129;27;42310;-63
2023/08/15 13:37:21;;;;;;;9.35;5.30;;;;;;;;;;5114377;27;42867;-63
2023/08/15 13:39:49;;;;;;;8.40;5.35;;;;;;;;;;5108200;27;39518;-64
2023/08/15 13:42:18;;;;;;;10.13;5.13;;;;;;;;;;5111999;27;41622;-63
2023/08/15 13:45:04;;;;;;;13.02;5.30;;;;;;;;;;5118388;27;39395;-63
2023/08/15 13:47:37;;;;;;;9.93;4.78;;;;;;;;;;5106662;27;41735;-63
2023/08/15 13:50:06;;;;;;;11.35;5.88;;;;;;;;;;5112674;27;43163;-62
2023/08/15 13:52:36;;;;;;;12.35;5.93;;;;;;;;;;5113935;27;40925;-63
2023/08/15 13:55:04;;;;;;;10.18;5.30;;;;;;;;;;5117932;27;41736;-62
2023/08/15 13:57:34;;;;;;;13.23;5.82;;;;;;;;;;5107671;27;42084;-64
2023/08/15 14:00:03;;;;;;;12.30;5.80;;;;;;;;;;5107293;27;40478;-64
2023/08/15 14:02:31;;;;;;;12.75;6.45;;;;;;;;;;5110256;27;41082;-64
2023/08/15 14:05:04;;;;;;;14.13;6.20;;;;;;;;;;5111273;27;40662;-64
2023/08/15 14:07:32;;;;;;;15.07;6.40;;;;;;;;;;5109706;27;41213;-63
2023/08/15 14:10:00;;;;;;;11.63;5.60;;;;;;;;;;5110767;27;42506;-63
2023/08/15 14:12:28;;;;;;;9.40;5.25;;;;;;;;;;5110565;27;41345;-63
2023/08/15 14:14:58;;;;;;;12.07;5.85;;;;;;;;;;5108099;27;43201;-63
2023/08/15 14:17:26;;;;;;;9.68;5.20;;;;;;;;;;5106491;27;43360;-63
2023/08/15 14:19:54;;;;;;;12.98;5.35;;;;;;;;;;5107303;27;41284;-63
2023/08/15 14:22:22;;;;;;;8.48;4.95;;;;;;;;;;5107722;27;42161;-63
2023/08/15 14:24:50;;;;;;;13.68;4.97;;;;;;;;;;5106870;27;42507;-63
2023/08/15 14:27:18;;;;;;;9.85;5.00;;;;;;;;;;5108627;27;39940;-63
2023/08/15 14:29:48;;;;;;;9.98;5.00;;;;;;;;;;5106340;27;42053;-62
2023/08/15 14:32:17;;;;;;;7.25;4.97;;;;;;;;;;5107278;27;41033;-63
2023/08/15 14:34:46;;;;;;;9.68;4.20;;;;;;;;;;5108105;27;41545;-63
2023/08/15 14:37:15;;;;;;;9.43;4.70;;;;;;;;;;5107849;27;42074;-64
2023/08/15 14:39:43;;;;;;;17.45;5.30;;;;;;;;;;5112486;27;39952;-64
2023/08/15 14:42:11;;;;;;;13.93;5.05;;;;;;;;;;5127340;27;42864;-64
2023/08/15 14:44:39;;;;;;;13.88;5.50;;;;;;;;;;5127352;27;42662;-64
2023/08/15 14:47:07;;;;;;;14.23;5.15;;;;;;;;;;5125955;27;40399;-65